sensor_id;sensor_type;location;lat;lon;timestamp;P1;durP1;ratioP1;P2;durP2;ratioP2
39776;SDS011;25453;48.162;14.510;2023-08-06T00:02:27;2.13;;;1.35;;
39776;SDS011;25453;48.162;14.510;2023-08-06T00:04:54;2.47;;;1.38;;
39776;SDS011;25453;48.162;14.510;2023-08-06T00:07:21;2.70;;;1.30;;
39776;SDS011;25453;48.162;14.510;2023-08-06T00:09:49;2.47;;;1.27;;
39776;SDS011;25453;48.162;14.510;2023-08-06T00:12:16;2.33;;;1.27;;
39776;SDS011;25453;48.162;14.510;2023-08-06T00:14:43;2.67;;;1.20;;
39776;SDS011;25453;48.162;14.510;2023-08-06T00:17:11;2.88;;;1.20;;
39776;SDS011;25453;48.162;14.510;2023-08-06T00:19:38;2.88;;;1.50;;
39776;SDS011;25453;48.162;14.510;2023-08-06T00:22:06;2.35;;;1.52;;
39776;SDS011;25453;48.162;14.510;2023-08-06T00:24:34;2.75;;;1.38;;
39776;SDS011;25453;48.162;14.510;2023-08-06T00:27:02;2.05;;;1.17;;
39776;SDS011;25453;48.162;14.510;2023-08-06T00:29:29;2.10;;;1.30;;
39776;SDS011;25453;48.162;14.510;2023-08-06T00:31:56;1.73;;;1.20;;
39776;SDS011;25453;48.162;14.510;2023-08-06T00:34:23;2.75;;;1.35;;
39776;SDS011;25453;48.162;14.510;2023-08-06T00:36:51;2.75;;;1.20;;
39776;SDS011;25453;48.162;14.510;2023-08-06T00:39:20;1.40;;;0.80;;
39776;SDS011;25453;48.162;14.510;2023-08-06T00:41:47;2.40;;;1.38;;
39776;SDS011;25453;48.162;14.510;2023-08-06T00:44:15;2.28;;;1.33;;
39776;SDS011;25453;48.162;14.510;2023-08-06T00:46:42;2.95;;;1.40;;
39776;SDS011;25453;48.162;14.510;2023-08-06T00:49:09;1.58;;;1.00;;
39776;SDS011;25453;48.162;14.510;2023-08-06T00:51:37;2.05;;;1.02;;
39776;SDS011;25453;48.162;14.510;2023-08-06T00:54:04;2.10;;;1.15;;
39776;SDS011;25453;48.162;14.510;2023-08-06T00:56:32;1.98;;;1.10;;
39776;SDS011;25453;48.162;14.510;2023-08-06T00:59:05;1.48;;;1.00;;
39776;SDS011;25453;48.162;14.510;2023-08-06T01:01:32;1.33;;;0.80;;
39776;SDS011;25453;48.162;14.510;2023-08-06T01:04:00;2.05;;;1.10;;
39776;SDS011;25453;48.162;14.510;2023-08-06T01:09:27;1.73;;;0.90;;
39776;SDS011;25453;48.162;14.510;2023-08-06T01:17:32;1.83;;;1.17;;
39776;SDS011;25453;48.162;14.510;2023-08-06T01:20:00;2.10;;;1.02;;
39776;SDS011;25453;48.162;14.510;2023-08-06T01:22:27;1.42;;;0.90;;
39776;SDS011;25453;48.162;14.510;2023-08-06T01:24:54;1.80;;;0.88;;
39776;SDS011;25453;48.162;14.510;2023-08-06T01:27:44;1.52;;;1.00;;
39776;SDS011;25453;48.162;14.510;2023-08-06T01:30:20;1.65;;;0.98;;
39776;SDS011;25453;48.162;14.510;2023-08-06T01:32:59;1.10;;;0.80;;
39776;SDS011;25453;48.162;14.510;2023-08-06T01:35:30;1.98;;;1.25;;
39776;SDS011;25453;48.162;14.510;2023-08-06T01:37:59;2.17;;;0.90;;
39776;SDS011;25453;48.162;14.510;2023-08-06T01:40:27;1.88;;;1.10;;
39776;SDS011;25453;48.162;14.510;2023-08-06T01:42:56;1.80;;;1.15;;
39776;SDS011;25453;48.162;14.510;2023-08-06T01:45:23;2.15;;;1.08;;
39776;SDS011;25453;48.162;14.510;2023-08-06T01:47:50;2.28;;;1.30;;
39776;SDS011;25453;48.162;14.510;2023-08-06T01:50:17;1.98;;;1.13;;
39776;SDS011;25453;48.162;14.510;2023-08-06T01:52:45;1.50;;;1.00;;
39776;SDS011;25453;48.162;14.510;2023-08-06T01:55:12;1.40;;;0.90;;
39776;SDS011;25453;48.162;14.510;2023-08-06T01:57:39;1.77;;;1.10;;
39776;SDS011;25453;48.162;14.510;2023-08-06T02:00:06;2.67;;;1.30;;
39776;SDS011;25453;48.162;14.510;2023-08-06T02:02:34;2.13;;;1.17;;
39776;SDS011;25453;48.162;14.510;2023-08-06T02:05:01;1.95;;;1.15;;
39776;SDS011;25453;48.162;14.510;2023-08-06T02:07:29;0.98;;;0.77;;
39776;SDS011;25453;48.162;14.510;2023-08-06T02:09:56;1.63;;;1.20;;
39776;SDS011;25453;48.162;14.510;2023-08-06T02:12:23;1.50;;;0.88;;
39776;SDS011;25453;48.162;14.510;2023-08-06T02:14:50;2.00;;;1.00;;
39776;SDS011;25453;48.162;14.510;2023-08-06T02:17:18;2.10;;;1.10;;
39776;SDS011;25453;48.162;14.510;2023-08-06T02:19:45;1.67;;;0.95;;
39776;SDS011;25453;48.162;14.510;2023-08-06T02:22:12;2.08;;;1.33;;
39776;SDS011;25453;48.162;14.510;2023-08-06T02:24:39;2.50;;;1.20;;
39776;SDS011;25453;48.162;14.510;2023-08-06T02:27:06;1.83;;;1.25;;
39776;SDS011;25453;48.162;14.510;2023-08-06T02:29:33;2.65;;;1.33;;
39776;SDS011;25453;48.162;14.510;2023-08-06T02:32:01;1.40;;;0.90;;
39776;SDS011;25453;48.162;14.510;2023-08-06T02:34:29;1.80;;;1.30;;
39776;SDS011;25453;48.162;14.510;2023-08-06T02:36:56;1.38;;;1.10;;
39776;SDS011;25453;48.162;14.510;2023-08-06T02:39:23;2.67;;;1.10;;
39776;SDS011;25453;48.162;14.510;2023-08-06T02:41:50;2.45;;;1.10;;
39776;SDS011;25453;48.162;14.510;2023-08-06T02:44:18;1.77;;;1.00;;
39776;SDS011;25453;48.162;14.510;2023-08-06T02:46:45;2.72;;;1.42;;
39776;SDS011;25453;48.162;14.510;2023-08-06T02:49:12;1.92;;;0.98;;
39776;SDS011;25453;48.162;14.510;2023-08-06T02:51:39;2.47;;;1.20;;
39776;SDS011;25453;48.162;14.510;2023-08-06T02:54:07;2.03;;;1.27;;
39776;SDS011;25453;48.162;14.510;2023-08-06T02:56:34;1.98;;;1.23;;
39776;SDS011;25453;48.162;14.510;2023-08-06T02:59:01;3.55;;;1.40;;
39776;SDS011;25453;48.162;14.510;2023-08-06T03:01:28;2.00;;;1.40;;
39776;SDS011;25453;48.162;14.510;2023-08-06T03:03:55;3.70;;;1.67;;
39776;SDS011;25453;48.162;14.510;2023-08-06T03:06:22;1.95;;;1.27;;
39776;SDS011;25453;48.162;14.510;2023-08-06T03:08:50;2.53;;;1.48;;
39776;SDS011;25453;48.162;14.510;2023-08-06T03:11:17;2.55;;;1.48;;
39776;SDS011;25453;48.162;14.510;2023-08-06T03:13:44;2.47;;;1.50;;
39776;SDS011;25453;48.162;14.510;2023-08-06T03:16:11;2.60;;;1.45;;
39776;SDS011;25453;48.162;14.510;2023-08-06T03:18:38;3.50;;;1.30;;
39776;SDS011;25453;48.162;14.510;2023-08-06T03:21:06;2.65;;;1.38;;
39776;SDS011;25453;48.162;14.510;2023-08-06T03:23:33;2.55;;;1.48;;
39776;SDS011;25453;48.162;14.510;2023-08-06T03:26:03;3.42;;;1.85;;
39776;SDS011;25453;48.162;14.510;2023-08-06T03:28:31;2.55;;;1.60;;
39776;SDS011;25453;48.162;14.510;2023-08-06T03:31:01;3.53;;;1.75;;
39776;SDS011;25453;48.162;14.510;2023-08-06T03:33:30;2.83;;;1.42;;
39776;SDS011;25453;48.162;14.510;2023-08-06T03:35:57;1.90;;;1.27;;
39776;SDS011;25453;48.162;14.510;2023-08-06T03:38:24;3.67;;;1.70;;
39776;SDS011;25453;48.162;14.510;2023-08-06T03:40:51;5.45;;;2.28;;
39776;SDS011;25453;48.162;14.510;2023-08-06T03:43:19;3.10;;;1.92;;
39776;SDS011;25453;48.162;14.510;2023-08-06T03:45:46;3.38;;;1.98;;
39776;SDS011;25453;48.162;14.510;2023-08-06T03:48:13;3.47;;;1.88;;
39776;SDS011;25453;48.162;14.510;2023-08-06T03:50:40;2.95;;;1.95;;
39776;SDS011;25453;48.162;14.510;2023-08-06T03:53:07;2.72;;;1.83;;
39776;SDS011;25453;48.162;14.510;2023-08-06T03:55:35;3.25;;;2.25;;
39776;SDS011;25453;48.162;14.510;2023-08-06T03:58:02;4.85;;;2.30;;
39776;SDS011;25453;48.162;14.510;2023-08-06T04:00:29;3.40;;;2.13;;
39776;SDS011;25453;48.162;14.510;2023-08-06T04:02:56;3.90;;;2.42;;
39776;SDS011;25453;48.162;14.510;2023-08-06T04:05:23;3.88;;;2.20;;
39776;SDS011;25453;48.162;14.510;2023-08-06T04:07:51;3.97;;;2.30;;
39776;SDS011;25453;48.162;14.510;2023-08-06T04:10:18;3.08;;;1.88;;
39776;SDS011;25453;48.162;14.510;2023-08-06T04:12:45;4.85;;;2.67;;
39776;SDS011;25453;48.162;14.510;2023-08-06T04:15:12;6.20;;;2.60;;
39776;SDS011;25453;48.162;14.510;2023-08-06T04:17:39;4.95;;;2.50;;
39776;SDS011;25453;48.162;14.510;2023-08-06T04:20:07;3.15;;;1.98;;
39776;SDS011;25453;48.162;14.510;2023-08-06T04:22:34;3.33;;;1.85;;
39776;SDS011;25453;48.162;14.510;2023-08-06T04:25:01;2.65;;;2.03;;
39776;SDS011;25453;48.162;14.510;2023-08-06T04:27:29;3.08;;;1.80;;
39776;SDS011;25453;48.162;14.510;2023-08-06T04:29:56;3.83;;;1.98;;
39776;SDS011;25453;48.162;14.510;2023-08-06T04:32:23;4.45;;;1.80;;
39776;SDS011;25453;48.162;14.510;2023-08-06T04:34:52;4.78;;;1.60;;
39776;SDS011;25453;48.162;14.510;2023-08-06T04:37:22;3.40;;;1.23;;
39776;SDS011;25453;48.162;14.510;2023-08-06T04:39:49;1.90;;;1.20;;
39776;SDS011;25453;48.162;14.510;2023-08-06T04:42:16;2.20;;;1.50;;
39776;SDS011;25453;48.162;14.510;2023-08-06T04:44:43;4.40;;;1.80;;
39776;SDS011;25453;48.162;14.510;2023-08-06T04:47:10;3.20;;;1.50;;
39776;SDS011;25453;48.162;14.510;2023-08-06T04:49:38;2.33;;;1.50;;
39776;SDS011;25453;48.162;14.510;2023-08-06T04:52:05;2.67;;;1.38;;
39776;SDS011;25453;48.162;14.510;2023-08-06T04:54:32;2.45;;;1.30;;
39776;SDS011;25453;48.162;14.510;2023-08-06T04:57:00;2.63;;;1.42;;
39776;SDS011;25453;48.162;14.510;2023-08-06T04:59:27;2.20;;;1.10;;
39776;SDS011;25453;48.162;14.510;2023-08-06T05:01:54;1.80;;;1.02;;
39776;SDS011;25453;48.162;14.510;2023-08-06T05:04:22;2.47;;;1.20;;
39776;SDS011;25453;48.162;14.510;2023-08-06T05:06:49;2.25;;;1.13;;
39776;SDS011;25453;48.162;14.510;2023-08-06T05:09:16;2.83;;;1.00;;
39776;SDS011;25453;48.162;14.510;2023-08-06T05:11:46;2.15;;;1.15;;
39776;SDS011;25453;48.162;14.510;2023-08-06T05:14:14;1.38;;;1.00;;
39776;SDS011;25453;48.162;14.510;2023-08-06T05:16:41;1.58;;;1.00;;
39776;SDS011;25453;48.162;14.510;2023-08-06T05:19:08;2.92;;;1.10;;
39776;SDS011;25453;48.162;14.510;2023-08-06T05:21:35;1.58;;;1.00;;
39776;SDS011;25453;48.162;14.510;2023-08-06T05:24:03;2.63;;;1.33;;
39776;SDS011;25453;48.162;14.510;2023-08-06T05:26:30;1.95;;;1.02;;
39776;SDS011;25453;48.162;14.510;2023-08-06T05:28:57;2.13;;;1.02;;
39776;SDS011;25453;48.162;14.510;2023-08-06T05:31:25;2.60;;;1.27;;
39776;SDS011;25453;48.162;14.510;2023-08-06T05:33:52;2.33;;;1.38;;
39776;SDS011;25453;48.162;14.510;2023-08-06T05:36:20;2.22;;;1.25;;
39776;SDS011;25453;48.162;14.510;2023-08-06T05:38:47;2.47;;;1.50;;
39776;SDS011;25453;48.162;14.510;2023-08-06T05:41:14;1.48;;;0.90;;
39776;SDS011;25453;48.162;14.510;2023-08-06T05:43:41;2.20;;;1.33;;
39776;SDS011;25453;48.162;14.510;2023-08-06T05:46:09;2.95;;;1.50;;
39776;SDS011;25453;48.162;14.510;2023-08-06T05:48:36;1.95;;;1.20;;
39776;SDS011;25453;48.162;14.510;2023-08-06T05:51:04;2.85;;;1.33;;
39776;SDS011;25453;48.162;14.510;2023-08-06T05:53:31;2.70;;;1.60;;
39776;SDS011;25453;48.162;14.510;2023-08-06T05:55:58;2.05;;;1.15;;
39776;SDS011;25453;48.162;14.510;2023-08-06T05:58:25;2.45;;;1.48;;
39776;SDS011;25453;48.162;14.510;2023-08-06T06:00:55;2.65;;;1.13;;
39776;SDS011;25453;48.162;14.510;2023-08-06T06:03:23;3.03;;;1.55;;
39776;SDS011;25453;48.162;14.510;2023-08-06T06:05:50;2.22;;;1.10;;
39776;SDS011;25453;48.162;14.510;2023-08-06T06:08:18;2.58;;;1.42;;
39776;SDS011;25453;48.162;14.510;2023-08-06T06:10:45;2.85;;;1.38;;
39776;SDS011;25453;48.162;14.510;2023-08-06T06:13:12;2.78;;;1.30;;
39776;SDS011;25453;48.162;14.510;2023-08-06T06:15:39;2.38;;;1.10;;
39776;SDS011;25453;48.162;14.510;2023-08-06T06:18:06;3.40;;;1.50;;
39776;SDS011;25453;48.162;14.510;2023-08-06T06:20:34;2.58;;;1.48;;
39776;SDS011;25453;48.162;14.510;2023-08-06T06:23:01;2.38;;;1.15;;
39776;SDS011;25453;48.162;14.510;2023-08-06T06:25:28;2.70;;;1.15;;
39776;SDS011;25453;48.162;14.510;2023-08-06T06:27:55;2.97;;;1.45;;
39776;SDS011;25453;48.162;14.510;2023-08-06T06:30:22;1.83;;;1.35;;
39776;SDS011;25453;48.162;14.510;2023-08-06T06:32:49;2.47;;;1.40;;
39776;SDS011;25453;48.162;14.510;2023-08-06T06:35:16;1.67;;;1.08;;
39776;SDS011;25453;48.162;14.510;2023-08-06T06:37:44;4.07;;;1.60;;
39776;SDS011;25453;48.162;14.510;2023-08-06T06:40:11;2.30;;;1.50;;
39776;SDS011;25453;48.162;14.510;2023-08-06T06:42:39;1.90;;;1.30;;
39776;SDS011;25453;48.162;14.510;2023-08-06T06:45:06;2.75;;;1.50;;
39776;SDS011;25453;48.162;14.510;2023-08-06T06:47:34;2.67;;;1.30;;
39776;SDS011;25453;48.162;14.510;2023-08-06T06:50:01;2.45;;;1.10;;
39776;SDS011;25453;48.162;14.510;2023-08-06T06:52:30;3.38;;;1.42;;
39776;SDS011;25453;48.162;14.510;2023-08-06T06:54:57;2.15;;;1.20;;
39776;SDS011;25453;48.162;14.510;2023-08-06T06:57:24;3.35;;;1.30;;
39776;SDS011;25453;48.162;14.510;2023-08-06T06:59:51;2.92;;;1.60;;
39776;SDS011;25453;48.162;14.510;2023-08-06T07:02:18;3.25;;;1.60;;
39776;SDS011;25453;48.162;14.510;2023-08-06T07:04:45;2.20;;;1.33;;
39776;SDS011;25453;48.162;14.510;2023-08-06T07:07:13;3.42;;;1.60;;
39776;SDS011;25453;48.162;14.510;2023-08-06T07:09:40;2.85;;;1.48;;
39776;SDS011;25453;48.162;14.510;2023-08-06T07:12:07;2.15;;;1.23;;
39776;SDS011;25453;48.162;14.510;2023-08-06T07:14:34;3.50;;;1.65;;
39776;SDS011;25453;48.162;14.510;2023-08-06T07:17:02;2.30;;;1.30;;
39776;SDS011;25453;48.162;14.510;2023-08-06T07:19:29;3.15;;;1.58;;
39776;SDS011;25453;48.162;14.510;2023-08-06T07:21:56;2.58;;;1.30;;
39776;SDS011;25453;48.162;14.510;2023-08-06T07:24:23;2.42;;;1.30;;
39776;SDS011;25453;48.162;14.510;2023-08-06T07:26:50;2.65;;;1.45;;
39776;SDS011;25453;48.162;14.510;2023-08-06T07:29:19;3.58;;;1.80;;
39776;SDS011;25453;48.162;14.510;2023-08-06T07:31:48;3.13;;;1.25;;
39776;SDS011;25453;48.162;14.510;2023-08-06T07:34:17;3.00;;;1.50;;
39776;SDS011;25453;48.162;14.510;2023-08-06T07:36:45;3.13;;;1.58;;
39776;SDS011;25453;48.162;14.510;2023-08-06T07:39:12;3.25;;;1.60;;
39776;SDS011;25453;48.162;14.510;2023-08-06T07:41:40;3.53;;;1.67;;
39776;SDS011;25453;48.162;14.510;2023-08-06T07:44:08;2.72;;;1.67;;
39776;SDS011;25453;48.162;14.510;2023-08-06T07:46:35;2.50;;;1.40;;
39776;SDS011;25453;48.162;14.510;2023-08-06T07:49:02;3.65;;;1.83;;
39776;SDS011;25453;48.162;14.510;2023-08-06T07:51:29;2.83;;;1.45;;
39776;SDS011;25453;48.162;14.510;2023-08-06T07:53:56;2.85;;;1.40;;
39776;SDS011;25453;48.162;14.510;2023-08-06T07:56:23;2.75;;;1.55;;
39776;SDS011;25453;48.162;14.510;2023-08-06T07:58:51;2.92;;;1.77;;
39776;SDS011;25453;48.162;14.510;2023-08-06T08:01:18;3.33;;;1.63;;
39776;SDS011;25453;48.162;14.510;2023-08-06T08:03:45;2.22;;;1.27;;
39776;SDS011;25453;48.162;14.510;2023-08-06T08:06:12;4.65;;;1.55;;
39776;SDS011;25453;48.162;14.510;2023-08-06T08:08:40;4.13;;;1.60;;
39776;SDS011;25453;48.162;14.510;2023-08-06T08:11:07;3.28;;;1.52;;
39776;SDS011;25453;48.162;14.510;2023-08-06T08:13:34;2.72;;;1.40;;
39776;SDS011;25453;48.162;14.510;2023-08-06T08:16:01;2.33;;;1.33;;
39776;SDS011;25453;48.162;14.510;2023-08-06T08:18:29;2.30;;;1.27;;
39776;SDS011;25453;48.162;14.510;2023-08-06T08:20:58;2.13;;;1.10;;
39776;SDS011;25453;48.162;14.510;2023-08-06T08:23:25;2.10;;;1.25;;
39776;SDS011;25453;48.162;14.510;2023-08-06T08:25:52;2.13;;;1.42;;
39776;SDS011;25453;48.162;14.510;2023-08-06T08:28:19;2.95;;;1.45;;
39776;SDS011;25453;48.162;14.510;2023-08-06T08:30:47;1.83;;;1.27;;
39776;SDS011;25453;48.162;14.510;2023-08-06T08:33:14;2.25;;;1.13;;
39776;SDS011;25453;48.162;14.510;2023-08-06T08:35:42;2.80;;;1.33;;
39776;SDS011;25453;48.162;14.510;2023-08-06T08:38:09;1.70;;;1.00;;
39776;SDS011;25453;48.162;14.510;2023-08-06T08:40:37;2.05;;;1.42;;
39776;SDS011;25453;48.162;14.510;2023-08-06T08:43:19;2.53;;;1.17;;
39776;SDS011;25453;48.162;14.510;2023-08-06T08:45:52;2.00;;;0.90;;
39776;SDS011;25453;48.162;14.510;2023-08-06T08:48:27;2.05;;;1.05;;
39776;SDS011;25453;48.162;14.510;2023-08-06T08:50:55;2.22;;;1.00;;
39776;SDS011;25453;48.162;14.510;2023-08-06T08:53:24;1.50;;;0.98;;
39776;SDS011;25453;48.162;14.510;2023-08-06T08:55:54;1.25;;;0.80;;
39776;SDS011;25453;48.162;14.510;2023-08-06T08:58:22;2.75;;;0.70;;
39776;SDS011;25453;48.162;14.510;2023-08-06T09:00:49;2.05;;;1.10;;
39776;SDS011;25453;48.162;14.510;2023-08-06T09:03:17;1.65;;;1.05;;
39776;SDS011;25453;48.162;14.510;2023-08-06T09:05:45;1.08;;;0.70;;
39776;SDS011;25453;48.162;14.510;2023-08-06T09:08:18;1.45;;;0.88;;
39776;SDS011;25453;48.162;14.510;2023-08-06T09:10:50;1.85;;;0.85;;
39776;SDS011;25453;48.162;14.510;2023-08-06T09:13:18;3.05;;;1.20;;
39776;SDS011;25453;48.162;14.510;2023-08-06T09:15:47;1.73;;;0.98;;
39776;SDS011;25453;48.162;14.510;2023-08-06T09:18:24;2.22;;;1.10;;
39776;SDS011;25453;48.162;14.510;2023-08-06T09:20:58;2.05;;;1.13;;
39776;SDS011;25453;48.162;14.510;2023-08-06T09:23:29;1.75;;;0.93;;
39776;SDS011;25453;48.162;14.510;2023-08-06T09:25:57;2.30;;;1.13;;
39776;SDS011;25453;48.162;14.510;2023-08-06T09:28:36;2.17;;;1.33;;
39776;SDS011;25453;48.162;14.510;2023-08-06T09:31:09;2.63;;;1.35;;
39776;SDS011;25453;48.162;14.510;2023-08-06T09:33:39;1.58;;;0.90;;
39776;SDS011;25453;48.162;14.510;2023-08-06T09:36:12;5.25;;;1.50;;
39776;SDS011;25453;48.162;14.510;2023-08-06T09:38:40;3.42;;;1.60;;
39776;SDS011;25453;48.162;14.510;2023-08-06T09:41:08;1.92;;;0.90;;
39776;SDS011;25453;48.162;14.510;2023-08-06T09:43:44;5.53;;;2.10;;
39776;SDS011;25453;48.162;14.510;2023-08-06T09:46:12;4.38;;;2.22;;
39776;SDS011;25453;48.162;14.510;2023-08-06T09:48:46;5.00;;;2.30;;
39776;SDS011;25453;48.162;14.510;2023-08-06T09:51:14;4.45;;;2.63;;
39776;SDS011;25453;48.162;14.510;2023-08-06T09:53:46;3.33;;;1.70;;
39776;SDS011;25453;48.162;14.510;2023-08-06T09:56:16;5.28;;;2.42;;
39776;SDS011;25453;48.162;14.510;2023-08-06T09:58:44;4.22;;;2.05;;
39776;SDS011;25453;48.162;14.510;2023-08-06T10:01:15;2.40;;;1.30;;
39776;SDS011;25453;48.162;14.510;2023-08-06T10:03:44;2.05;;;1.20;;
39776;SDS011;25453;48.162;14.510;2023-08-06T10:06:13;3.47;;;1.98;;
39776;SDS011;25453;48.162;14.510;2023-08-06T10:08:40;2.58;;;1.33;;
39776;SDS011;25453;48.162;14.510;2023-08-06T10:11:08;3.78;;;1.77;;
39776;SDS011;25453;48.162;14.510;2023-08-06T10:13:37;3.60;;;1.50;;
39776;SDS011;25453;48.162;14.510;2023-08-06T10:16:04;2.92;;;1.27;;
39776;SDS011;25453;48.162;14.510;2023-08-06T10:18:32;2.90;;;1.30;;
39776;SDS011;25453;48.162;14.510;2023-08-06T10:21:02;4.30;;;1.77;;
39776;SDS011;25453;48.162;14.510;2023-08-06T10:23:33;2.13;;;1.30;;
39776;SDS011;25453;48.162;14.510;2023-08-06T10:26:02;3.00;;;1.38;;
39776;SDS011;25453;48.162;14.510;2023-08-06T10:28:47;2.15;;;1.30;;
39776;SDS011;25453;48.162;14.510;2023-08-06T10:31:14;4.68;;;1.83;;
39776;SDS011;25453;48.162;14.510;2023-08-06T10:33:42;4.20;;;1.50;;
39776;SDS011;25453;48.162;14.510;2023-08-06T10:36:11;2.72;;;1.33;;
39776;SDS011;25453;48.162;14.510;2023-08-06T10:38:46;2.80;;;1.27;;
39776;SDS011;25453;48.162;14.510;2023-08-06T10:41:16;1.88;;;1.05;;
39776;SDS011;25453;48.162;14.510;2023-08-06T10:44:04;2.35;;;1.15;;
39776;SDS011;25453;48.162;14.510;2023-08-06T10:46:36;2.38;;;1.20;;
39776;SDS011;25453;48.162;14.510;2023-08-06T10:49:04;4.25;;;1.25;;
39776;SDS011;25453;48.162;14.510;2023-08-06T10:51:31;2.65;;;1.27;;
39776;SDS011;25453;48.162;14.510;2023-08-06T10:54:01;3.30;;;1.00;;
39776;SDS011;25453;48.162;14.510;2023-08-06T10:56:29;2.58;;;0.90;;
39776;SDS011;25453;48.162;14.510;2023-08-06T10:58:57;1.60;;;0.90;;
39776;SDS011;25453;48.162;14.510;2023-08-06T11:01:26;2.13;;;0.90;;
39776;SDS011;25453;48.162;14.510;2023-08-06T11:04:00;1.55;;;0.85;;
39776;SDS011;25453;48.162;14.510;2023-08-06T11:06:29;2.42;;;1.13;;
39776;SDS011;25453;48.162;14.510;2023-08-06T11:08:56;1.55;;;0.90;;
39776;SDS011;25453;48.162;14.510;2023-08-06T11:11:23;3.95;;;1.00;;
39776;SDS011;25453;48.162;14.510;2023-08-06T11:13:51;1.30;;;0.75;;
39776;SDS011;25453;48.162;14.510;2023-08-06T11:16:22;1.15;;;0.70;;
39776;SDS011;25453;48.162;14.510;2023-08-06T11:18:53;4.38;;;1.23;;
39776;SDS011;25453;48.162;14.510;2023-08-06T11:21:21;1.50;;;0.60;;
39776;SDS011;25453;48.162;14.510;2023-08-06T11:23:49;3.00;;;1.00;;
39776;SDS011;25453;48.162;14.510;2023-08-06T11:26:20;1.38;;;0.80;;
39776;SDS011;25453;48.162;14.510;2023-08-06T11:28:50;1.65;;;0.70;;
39776;SDS011;25453;48.162;14.510;2023-08-06T11:31:21;0.95;;;0.60;;
39776;SDS011;25453;48.162;14.510;2023-08-06T11:33:52;2.15;;;1.00;;
39776;SDS011;25453;48.162;14.510;2023-08-06T11:36:32;2.60;;;0.82;;
39776;SDS011;25453;48.162;14.510;2023-08-06T11:39:03;3.20;;;0.82;;
39776;SDS011;25453;48.162;14.510;2023-08-06T11:41:33;4.57;;;1.55;;
39776;SDS011;25453;48.162;14.510;2023-08-06T11:44:03;1.35;;;0.70;;
39776;SDS011;25453;48.162;14.510;2023-08-06T11:46:49;0.63;;;0.50;;
39776;SDS011;25453;48.162;14.510;2023-08-06T11:49:41;1.17;;;0.70;;
39776;SDS011;25453;48.162;14.510;2023-08-06T11:52:15;2.95;;;0.85;;
39776;SDS011;25453;48.162;14.510;2023-08-06T11:54:47;1.02;;;0.60;;
39776;SDS011;25453;48.162;14.510;2023-08-06T11:57:28;1.15;;;0.50;;
39776;SDS011;25453;48.162;14.510;2023-08-06T12:00:32;0.50;;;0.30;;
39776;SDS011;25453;48.162;14.510;2023-08-06T12:02:53;0.60;;;0.40;;
39776;SDS011;25453;48.162;14.510;2023-08-06T12:05:30;0.68;;;0.40;;
39776;SDS011;25453;48.162;14.510;2023-08-06T12:08:02;0.50;;;0.32;;
39776;SDS011;25453;48.162;14.510;2023-08-06T12:10:30;1.80;;;0.35;;
39776;SDS011;25453;48.162;14.510;2023-08-06T12:12:58;1.75;;;0.50;;
39776;SDS011;25453;48.162;14.510;2023-08-06T12:15:26;0.65;;;0.40;;
39776;SDS011;25453;48.162;14.510;2023-08-06T12:17:55;2.25;;;0.50;;
39776;SDS011;25453;48.162;14.510;2023-08-06T12:20:22;1.75;;;0.47;;
39776;SDS011;25453;48.162;14.510;2023-08-06T12:22:49;0.68;;;0.45;;
39776;SDS011;25453;48.162;14.510;2023-08-06T12:25:16;0.45;;;0.45;;
39776;SDS011;25453;48.162;14.510;2023-08-06T12:27:44;1.88;;;0.57;;
39776;SDS011;25453;48.162;14.510;2023-08-06T12:30:12;1.40;;;0.45;;
39776;SDS011;25453;48.162;14.510;2023-08-06T12:32:40;0.82;;;0.40;;
39776;SDS011;25453;48.162;14.510;2023-08-06T12:35:08;0.32;;;0.22;;
39776;SDS011;25453;48.162;14.510;2023-08-06T12:37:35;0.38;;;0.38;;
39776;SDS011;25453;48.162;14.510;2023-08-06T12:40:05;0.63;;;0.40;;
39776;SDS011;25453;48.162;14.510;2023-08-06T12:42:53;2.92;;;0.60;;
39776;SDS011;25453;48.162;14.510;2023-08-06T12:45:20;1.90;;;0.80;;
39776;SDS011;25453;48.162;14.510;2023-08-06T12:47:48;0.82;;;0.40;;
39776;SDS011;25453;48.162;14.510;2023-08-06T12:50:16;0.40;;;0.30;;
39776;SDS011;25453;48.162;14.510;2023-08-06T12:52:44;0.50;;;0.30;;
39776;SDS011;25453;48.162;14.510;2023-08-06T12:55:12;1.35;;;0.40;;
39776;SDS011;25453;48.162;14.510;2023-08-06T12:57:39;2.17;;;0.40;;
39776;SDS011;25453;48.162;14.510;2023-08-06T13:00:23;0.22;;;0.22;;
39776;SDS011;25453;48.162;14.510;2023-08-06T13:02:50;0.40;;;0.20;;
39776;SDS011;25453;48.162;14.510;2023-08-06T13:05:18;0.35;;;0.20;;
39776;SDS011;25453;48.162;14.510;2023-08-06T13:07:46;0.28;;;0.28;;
39776;SDS011;25453;48.162;14.510;2023-08-06T13:10:13;0.47;;;0.20;;
39776;SDS011;25453;48.162;14.510;2023-08-06T13:12:41;0.30;;;0.20;;
39776;SDS011;25453;48.162;14.510;2023-08-06T13:15:08;2.97;;;0.35;;
39776;SDS011;25453;48.162;14.510;2023-08-06T13:17:36;0.55;;;0.25;;
39776;SDS011;25453;48.162;14.510;2023-08-06T13:20:08;0.35;;;0.30;;
39776;SDS011;25453;48.162;14.510;2023-08-06T13:22:36;0.80;;;0.30;;
39776;SDS011;25453;48.162;14.510;2023-08-06T13:25:03;1.75;;;0.75;;
39776;SDS011;25453;48.162;14.510;2023-08-06T13:27:30;2.55;;;0.30;;
39776;SDS011;25453;48.162;14.510;2023-08-06T13:29:57;0.47;;;0.20;;
39776;SDS011;25453;48.162;14.510;2023-08-06T13:32:25;0.63;;;0.20;;
39776;SDS011;25453;48.162;14.510;2023-08-06T13:34:52;0.75;;;0.30;;
39776;SDS011;25453;48.162;14.510;2023-08-06T13:37:19;1.27;;;0.30;;
39776;SDS011;25453;48.162;14.510;2023-08-06T13:39:47;0.45;;;0.22;;
39776;SDS011;25453;48.162;14.510;2023-08-06T13:42:14;1.23;;;0.40;;
39776;SDS011;25453;48.162;14.510;2023-08-06T13:44:41;0.20;;;0.20;;
39776;SDS011;25453;48.162;14.510;2023-08-06T13:47:08;0.47;;;0.20;;
39776;SDS011;25453;48.162;14.510;2023-08-06T13:49:35;0.50;;;0.30;;
39776;SDS011;25453;48.162;14.510;2023-08-06T13:52:02;0.63;;;0.30;;
39776;SDS011;25453;48.162;14.510;2023-08-06T13:54:47;0.40;;;0.20;;
39776;SDS011;25453;48.162;14.510;2023-08-06T13:57:14;1.02;;;0.40;;
39776;SDS011;25453;48.162;14.510;2023-08-06T13:59:44;0.98;;;0.30;;
39776;SDS011;25453;48.162;14.510;2023-08-06T14:02:11;0.20;;;0.20;;
39776;SDS011;25453;48.162;14.510;2023-08-06T14:04:39;2.97;;;0.40;;
39776;SDS011;25453;48.162;14.510;2023-08-06T14:07:07;0.30;;;0.22;;
39776;SDS011;25453;48.162;14.510;2023-08-06T14:09:34;1.75;;;0.22;;
39776;SDS011;25453;48.162;14.510;2023-08-06T14:12:01;0.20;;;0.20;;
39776;SDS011;25453;48.162;14.510;2023-08-06T14:14:29;0.20;;;0.10;;
39776;SDS011;25453;48.162;14.510;2023-08-06T14:16:56;0.45;;;0.20;;
39776;SDS011;25453;48.162;14.510;2023-08-06T14:19:24;0.10;;;0.10;;
39776;SDS011;25453;48.162;14.510;2023-08-06T14:21:52;1.52;;;0.30;;
39776;SDS011;25453;48.162;14.510;2023-08-06T14:24:19;0.20;;;0.20;;
39776;SDS011;25453;48.162;14.510;2023-08-06T14:26:46;1.02;;;0.20;;
39776;SDS011;25453;48.162;14.510;2023-08-06T14:29:14;0.10;;;0.10;;
39776;SDS011;25453;48.162;14.510;2023-08-06T14:31:41;0.52;;;0.15;;
39776;SDS011;25453;48.162;14.510;2023-08-06T14:34:08;0.20;;;0.20;;
39776;SDS011;25453;48.162;14.510;2023-08-06T14:36:35;0.10;;;0.10;;
39776;SDS011;25453;48.162;14.510;2023-08-06T14:39:02;0.20;;;0.20;;
39776;SDS011;25453;48.162;14.510;2023-08-06T14:41:29;0.10;;;0.10;;
39776;SDS011;25453;48.162;14.510;2023-08-06T14:43:56;0.10;;;0.10;;
39776;SDS011;25453;48.162;14.510;2023-08-06T14:46:24;0.55;;;0.20;;
39776;SDS011;25453;48.162;14.510;2023-08-06T14:48:52;1.48;;;0.20;;
39776;SDS011;25453;48.162;14.510;2023-08-06T14:51:19;2.53;;;0.20;;